Time;durP1;ratioP1;P1;durP2;ratioP2;P2;SDS_P1;SDS_P2;PMS_P1;PMS_P2;Temp;Humidity;BMP_temperature;BMP_pressure;BME280_temperature;BME280_humidity;BME280_pressure;Samples;Min_cycle;Max_cycle;Signal;HPM_P1;HPM_P2
2022/09/19 00:01:58;;;;;;;;;1.00;1.00;;;;;11.87;83.42;99151.50;6334011;20;1805732;-53
2022/09/19 00:04:32;;;;;;;;;0.75;0.75;;;;;11.84;83.70;99151.72;6331805;20;1802460;-53
2022/09/19 00:07:00;;;;;;;;;0.00;0.00;;;;;11.95;83.00;99154.47;6317711;20;2726335;-53
2022/09/19 00:09:33;;;;;;;;;0.50;0.50;;;;;11.93;82.33;99158.25;6303533;20;1797141;-53
2022/09/19 00:12:02;;;;;;;;;0.50;0.50;;;;;11.83;81.66;99155.38;6332097;20;1800342;-51
2022/09/19 00:14:35;;;;;;;;;1.00;1.00;;;;;12.02;81.34;99155.72;6317192;20;2727391;-49
2022/09/19 00:17:07;;;;;;;;;0.50;0.50;;;;;12.04;80.94;99153.78;6298792;20;1803259;-50
2022/09/19 00:19:37;;;;;;;;;1.00;1.00;;;;;11.89;80.77;99149.56;6316798;20;2733580;-53
2022/09/19 00:22:07;;;;;;;;;2.00;1.00;;;;;11.92;81.26;99143.94;6301237;20;1807674;-50
2022/09/19 00:24:46;;;;;;;;;0.25;0.25;;;;;11.99;80.42;99142.50;6330527;20;1803571;-53
2022/09/19 00:27:25;;;;;;;;;2.00;0.50;;;;;11.99;80.02;99145.19;6316180;20;2731501;-52
2022/09/19 00:29:54;;;;;;;;;0.00;0.00;;;;;12.04;80.94;99142.16;6285985;20;2731532;-52
2022/09/19 00:32:24;;;;;;;;;1.00;0.00;;;;;11.94;81.69;99151.91;6297488;20;1802421;-50
2022/09/19 00:34:54;;;;;;;;;0.00;0.00;;;;;11.82;84.03;99140.19;6332737;20;1807185;-53
2022/09/19 00:37:23;;;;;;;;;0.00;0.00;;;;;11.72;84.48;99136.50;6329954;20;1803617;-55
2022/09/19 00:39:52;;;;;;;;;0.00;0.00;;;;;11.55;85.82;99129.69;6332097;20;1802417;-51
2022/09/19 00:42:24;;;;;;;;;0.25;0.25;;;;;11.50;86.09;99134.56;6330828;20;1803518;-52
2022/09/19 00:45:06;;;;;;;;;2.50;1.00;;;;;11.60;87.02;99128.38;6319252;20;2735757;-55
2022/09/19 00:47:44;;;;;;;;;0.00;0.00;;;;;11.47;88.27;99130.25;6301020;20;1803496;-53
2022/09/19 00:50:27;;;;;;;;;0.50;0.50;;;;;11.39;89.09;99129.97;6330441;20;1803607;-52
2022/09/19 00:53:08;;;;;;;;;0.50;0.50;;;;;11.27;90.28;99117.44;6312342;20;2732577;-60
2022/09/19 00:55:37;;;;;;;;;2.00;1.00;;;;;11.18;90.61;99116.28;6281931;20;2739860;-54
2022/09/19 00:58:31;;;;;;;;;1.25;0.00;;;;;11.06;91.88;99114.47;6300390;20;1809725;-53
2022/09/19 01:01:01;;;;;;;;;1.00;1.00;;;;;11.16;92.75;99112.84;6328477;20;1799312;-52
2022/09/19 01:03:30;;;;;;;;;1.75;0.75;;;;;11.09;93.11;99109.75;6327338;20;1802521;-53
2022/09/19 01:06:58;;;;;;;;;0.00;0.00;;;;;10.98;93.42;99110.53;6315272;20;2735668;-52
2022/09/19 01:09:48;;;;;;;;;0.00;0.00;;;;;11.05;94.12;99110.94;6280409;20;2735676;-53
2022/09/19 01:12:31;;;;;;;;;0.00;0.00;;;;;11.08;94.45;99104.50;6301064;20;1803505;-57
2022/09/19 01:15:28;;;;;;;;;0.00;0.00;;;;;10.97;94.92;99103.44;6328398;20;1809742;-54
2022/09/19 01:18:00;;;;;;;;;0.00;0.00;;;;;10.95;95.76;99104.53;6316665;20;2731504;-54
2022/09/19 01:24:19;;;;;;;;;10.00;10.00;;;;;11.08;94.41;99094.59;6310778;20;2764930;-54
2022/09/19 01:27:20;;;;;;;;;16.00;16.00;;;;;10.83;96.38;99095.53;6305336;20;2500247;-51
2022/09/19 01:30:13;;;;;;;;;0.25;0.25;;;;;10.80;96.61;99101.13;6300812;20;1803413;-55
2022/09/19 01:33:06;;;;;;;;;0.00;0.00;;;;;10.69;98.16;99107.28;6328662;20;1807695;-53
2022/09/19 01:35:40;;;;;;;;;1.00;0.75;;;;;10.82;98.33;99104.56;6328171;20;1805642;-50
2022/09/19 01:38:25;;;;;;;;;0.00;0.00;;;;;10.68;99.19;99099.31;6326107;20;1801550;-56
2022/09/19 01:40:55;;;;;;;;;2.00;0.00;;;;;10.70;100.00;99110.81;6329362;20;1803464;-52
2022/09/19 01:43:25;;;;;;;;;0.00;0.00;;;;;10.46;100.00;99108.03;6329224;20;1805539;-54
2022/09/19 01:46:08;;;;;;;;;1.00;1.00;;;;;10.61;100.00;99106.97;6329836;20;1807636;-53
2022/09/19 01:48:36;;;;;;;;;0.00;0.00;;;;;10.45;100.00;99114.34;6327133;20;1809170;-51
2022/09/19 01:51:32;;;;;;;;;3.00;1.25;;;;;10.46;100.00;99113.41;6328740;20;1807848;-53
2022/09/19 01:54:32;;;;;;;;;0.75;0.75;;;;;10.43;100.00;99102.91;6326396;20;1802472;-50
2022/09/19 01:57:31;;;;;;;;;2.00;1.00;;;;;10.28;100.00;99102.13;6310624;20;2728562;-50
2022/09/19 02:00:13;;;;;;;;;1.00;1.00;;;;;10.23;100.00;99096.19;6298839;20;1798338;-52
2022/09/19 02:03:27;;;;;;;;;1.00;1.00;;;;;10.30;100.00;99100.22;6330353;20;1810327;-49
2022/09/19 02:06:19;;;;;;;;;1.00;1.00;;;;;10.19;100.00;99092.88;6329961;20;1802461;-55
2022/09/19 02:09:25;;;;;;;;;1.00;1.00;;;;;10.36;100.00;99106.97;6327723;20;1810790;-52
2022/09/19 02:11:59;;;;;;;;;1.00;1.00;;;;;10.28;100.00;99094.94;6328575;20;1807735;-49
2022/09/19 02:14:34;;;;;;;;;1.00;1.00;;;;;10.08;100.00;99087.38;6326769;20;1803464;-52
2022/09/19 02:17:12;;;;;;;;;0.50;0.50;;;;;10.14;100.00;99084.28;6324731;20;1807767;-55
2022/09/19 02:19:46;;;;;;;;;1.00;1.00;;;;;10.09;100.00;99089.13;6329389;20;1807606;-54
2022/09/19 02:22:33;;;;;;;;;2.25;1.00;;;;;10.07;100.00;99085.69;6327576;20;1803503;-52
2022/09/19 02:25:17;;;;;;;;;2.00;2.00;;;;;10.20;100.00;99086.53;6328418;20;1799280;-52
2022/09/19 02:27:58;;;;;;;;;1.50;1.50;;;;;10.13;100.00;99085.25;6330082;20;1803965;-60
2022/09/19 02:30:27;;;;;;;;;1.00;1.00;;;;;10.16;100.00;99087.69;6314467;20;2726293;-60
2022/09/19 02:32:55;;;;;;;;;2.00;2.00;;;;;10.25;100.00;99088.91;6299836;20;1807808;-61
2022/09/19 02:35:50;;;;;;;;;2.00;2.00;;;;;10.29;100.00;99080.59;6326016;20;1806618;-60
2022/09/19 02:39:23;;;;;;;;;2.00;2.00;;;;;10.11;100.00;99092.56;6313095;20;2739877;-61
2022/09/19 02:42:16;;;;;;;;;3.00;3.00;;;;;10.21;100.00;99092.75;6286129;20;2735728;-60
2022/09/19 02:45:46;;;;;;;;;1.50;1.50;;;;;10.30;100.00;99093.03;6302837;20;1803565;-60
2022/09/19 02:48:26;;;;;;;;;1.00;1.00;;;;;10.43;100.00;99093.03;6332218;20;1812523;-60
2022/09/19 02:51:26;;;;;;;;;0.50;0.50;;;;;10.48;100.00;99090.88;6329509;20;1809782;-60
2022/09/19 02:54:08;;;;;;;;;1.75;1.00;;;;;10.40;100.00;99097.72;6332939;20;1803468;-60
2022/09/19 02:56:41;;;;;;;;;0.00;0.00;;;;;10.35;100.00;99094.50;6331419;20;1803418;-60
2022/09/19 02:59:21;;;;;;;;;2.00;0.00;;;;;10.36;100.00;99101.59;6333260;20;1805548;-61
2022/09/19 03:02:11;;;;;;;;;1.00;1.00;;;;;10.33;100.00;99111.56;6332464;20;1802847;-60
2022/09/19 03:04:48;;;;;;;;;2.00;0.75;;;;;10.43;100.00;99114.50;6331053;20;1803463;-60
2022/09/19 03:07:27;;;;;;;;;2.25;1.00;;;;;10.44;100.00;99116.19;6333775;20;1807098;-61
2022/09/19 03:10:20;;;;;;;;;1.00;1.00;;;;;10.37;100.00;99114.91;6317124;20;2730518;-60
2022/09/19 03:13:24;;;;;;;;;1.25;1.25;;;;;10.42;100.00;99117.25;6302188;20;1804575;-60
2022/09/19 03:16:14;;;;;;;;;2.00;2.00;;;;;10.46;100.00;99110.72;6335053;20;1810338;-60
2022/09/19 03:18:46;;;;;;;;;3.00;1.75;;;;;10.35;100.00;99103.44;6331669;20;1798197;-60
2022/09/19 03:21:22;;;;;;;;;1.00;0.50;;;;;10.27;100.00;99103.97;6334621;20;1803143;-53
2022/09/19 03:23:58;;;;;;;;;1.00;1.00;;;;;10.39;100.00;99109.44;6332352;20;1809827;-55
2022/09/19 03:26:35;;;;;;;;;4.00;3.00;;;;;10.30;100.00;99102.91;6328787;20;1807699;-53
2022/09/19 03:29:08;;;;;;;;;1.00;1.00;;;;;10.07;100.00;99096.41;6334791;20;1809677;-52
2022/09/19 03:31:37;;;;;;;;;1.50;1.00;;;;;10.33;100.00;99092.78;6334126;20;1809909;-51
2022/09/19 03:34:06;;;;;;;;;2.00;2.00;;;;;10.46;100.00;99087.44;6313878;20;2738828;-55
2022/09/19 03:36:33;;;;;;;;;4.00;3.00;;;;;10.49;100.00;99078.31;6283551;20;2756907;-51
2022/09/19 03:39:03;;;;;;;;;11.80;10.60;;;;;10.53;100.00;99066.34;6305167;20;2783998;-53
2022/09/19 03:41:32;;;;;;;;;13.33;12.00;;;;;10.29;100.00;99074.31;6280369;20;3517066;-51
2022/09/19 03:44:01;;;;;;;;;4.50;4.50;;;;;10.43;100.00;99070.69;6319403;20;2752345;-52
2022/09/19 03:46:31;;;;;;;;;2.25;1.00;;;;;10.45;100.00;99076.78;6293090;20;1802459;-55
2022/09/19 03:49:02;;;;;;;;;1.25;1.00;;;;;10.36;100.00;99081.00;6333814;20;1803466;-53
2022/09/19 03:51:33;;;;;;;;;1.75;1.75;;;;;10.20;100.00;99081.16;6331149;20;1795137;-52
2022/09/19 03:54:01;;;;;;;;;2.00;2.00;;;;;10.30;100.00;99090.34;6318122;20;2748285;-53
2022/09/19 03:56:30;;;;;;;;;1.00;1.00;;;;;10.21;100.00;99096.28;6300820;20;1808694;-54
2022/09/19 03:58:58;;;;;;;;;1.25;1.00;;;;;10.13;100.00;99087.91;6335152;20;1802886;-55
2022/09/19 04:01:27;;;;;;;;;3.00;1.00;;;;;10.13;100.00;99089.75;6328957;20;1789003;-53
2022/09/19 04:03:55;;;;;;;;;2.00;1.00;;;;;10.28;100.00;99089.56;6332452;20;1803483;-52
2022/09/19 04:06:24;;;;;;;;;1.00;1.00;;;;;10.22;100.00;99084.63;6332217;20;1803484;-54
2022/09/19 04:08:52;;;;;;;;;1.00;1.00;;;;;10.25;100.00;99086.22;6334857;20;1803537;-53
2022/09/19 04:11:20;;;;;;;;;1.00;1.00;;;;;10.19;100.00;99098.25;6303328;20;1803591;-54
2022/09/19 04:13:50;;;;;;;;;1.75;1.00;;;;;10.28;100.00;99100.31;6334880;20;1805534;-53
2022/09/19 04:16:19;;;;;;;;;1.75;1.75;;;;;10.19;100.00;99103.63;6329020;20;1805557;-54
2022/09/19 04:18:50;;;;;;;;;1.00;1.00;;;;;10.31;100.00;99107.28;6319230;20;2727368;-54
2022/09/19 04:21:19;;;;;;;;;1.00;1.00;;;;;10.24;100.00;99108.63;6304162;20;1799881;-54
2022/09/19 04:23:47;;;;;;;;;2.00;2.00;;;;;10.30;100.00;99109.13;6318200;20;2746069;-54
2022/09/19 04:26:15;;;;;;;;;2.00;2.00;;;;;10.30;100.00;99109.13;6301994;20;1802391;-51
2022/09/19 04:28:44;;;;;;;;;2.25;1.00;;;;;10.39;100.00;99118.34;6333186;20;1801389;-49
2022/09/19 04:31:12;;;;;;;;;2.00;2.00;;;;;10.36;100.00;99117.72;6318001;20;2740291;-53
2022/09/19 04:33:40;;;;;;;;;2.00;2.00;;;;;10.14;100.00;99110.22;6282574;20;2752418;-54
2022/09/19 04:36:08;;;;;;;;;2.00;2.00;;;;;10.20;100.00;99116.06;6283626;20;2735806;-50
2022/09/19 04:38:37;;;;;;;;;2.00;2.00;;;;;10.31;100.00;99110.81;6282483;20;2750323;-50
2022/09/19 04:41:05;;;;;;;;;2.00;2.00;;;;;10.26;100.00;99106.72;6287495;20;2739983;-54
2022/09/19 04:43:33;;;;;;;;;2.25;2.25;;;;;10.19;100.00;99113.47;6295749;20;1805045;-53
2022/09/19 04:46:01;;;;;;;;;3.00;3.00;;;;;10.17;100.00;99112.72;6311967;20;2756491;-52
2022/09/19 04:48:30;;;;;;;;;2.50;2.50;;;;;10.23;100.00;99115.84;6301390;20;1811857;-52
2022/09/19 04:50:58;;;;;;;;;3.00;3.00;;;;;10.15;100.00;99126.25;6313768;20;2756627;-51
2022/09/19 04:53:29;;;;;;;;;2.00;2.00;;;;;10.25;100.00;99121.97;6282779;20;2749209;-50
2022/09/19 04:55:57;;;;;;;;;3.00;2.00;;;;;10.36;100.00;99123.06;6281977;20;2752332;-51
2022/09/19 04:58:25;;;;;;;;;6.50;4.00;;;;;10.24;100.00;99133.66;6281751;20;2752364;-54
2022/09/19 05:00:55;;;;;;;;;4.50;3.00;;;;;10.15;100.00;99131.59;6283795;20;2739897;-52
2022/09/19 05:03:26;;;;;;;;;6.50;5.00;;;;;10.16;100.00;99133.31;6281482;20;2751420;-52
2022/09/19 05:05:55;;;;;;;;;4.00;4.00;;;;;10.27;100.00;99138.84;6279676;20;2748183;-50
2022/09/19 05:08:28;;;;;;;;;4.00;3.00;;;;;10.27;100.00;99138.84;6284797;20;2738857;-54
2022/09/19 05:11:02;;;;;;;;;5.00;4.00;;;;;10.23;100.00;99139.97;6285751;20;2744412;-50
2022/09/19 05:13:34;;;;;;;;;4.00;4.00;;;;;10.23;100.00;99137.28;6299858;20;1813033;-49
2022/09/19 05:16:02;;;;;;;;;3.00;3.00;;;;;10.30;100.00;99135.09;6316065;20;2742974;-53
2022/09/19 05:18:35;;;;;;;;;3.00;3.00;;;;;10.17;100.00;99129.69;6282657;20;2756501;-55
2022/09/19 05:21:15;;;;;;;;;3.50;3.00;;;;;10.13;100.00;99128.16;6284371;20;2752398;-54
2022/09/19 05:23:43;;;;;;;;;2.00;2.00;;;;;10.21;100.00;99125.81;6283083;20;2756524;-55
2022/09/19 05:26:17;;;;;;;;;3.00;3.00;;;;;10.31;100.00;99121.56;6284997;20;2755454;-52
2022/09/19 05:28:45;;;;;;;;;2.50;2.50;;;;;10.29;100.00;99128.88;6283259;20;2756601;-51
2022/09/19 05:31:16;;;;;;;;;3.00;3.00;;;;;10.28;100.00;99123.59;6284686;20;2751320;-54
2022/09/19 05:33:48;;;;;;;;;3.00;3.00;;;;;10.36;100.00;99125.75;6301255;20;1810775;-52
2022/09/19 05:36:17;;;;;;;;;4.50;2.50;;;;;10.37;100.00;99125.63;6311520;20;2754483;-53
2022/09/19 05:38:44;;;;;;;;;2.50;2.50;;;;;10.62;100.00;99123.94;6283443;20;2748175;-51
2022/09/19 05:41:12;;;;;;;;;6.50;3.50;;;;;10.41;100.00;99128.97;6284032;20;2750786;-52
2022/09/19 05:43:40;;;;;;;;;3.00;3.00;;;;;10.38;100.00;99134.56;6284050;20;2743993;-52
2022/09/19 05:46:08;;;;;;;;;4.00;3.00;;;;;10.37;100.00;99125.63;6296902;20;1809876;-49
2022/09/19 05:48:37;;;;;;;;;2.00;2.00;;;;;10.47;100.00;99141.97;6312670;20;2750335;-53
2022/09/19 05:51:05;;;;;;;;;2.50;2.50;;;;;10.48;100.00;99149.91;6275610;20;2754504;-52
2022/09/19 05:53:52;;;;;;;;;2.25;2.25;;;;;10.51;100.00;99155.06;6298822;20;1811786;-53
2022/09/19 05:56:23;;;;;;;;;5.25;3.00;;;;;10.39;100.00;99155.06;6328190;20;1808236;-53
2022/09/19 05:58:54;;;;;;;;;5.75;3.00;;;;;10.40;100.00;99165.69;6324840;20;1811805;-52
2022/09/19 06:01:22;;;;;;;;;5.00;4.00;;;;;10.37;100.00;99165.03;6314167;20;2746100;-50
2022/09/19 06:03:49;;;;;;;;;4.00;4.00;;;;;10.37;100.00;99176.63;6281519;20;2740892;-51
2022/09/19 06:06:18;;;;;;;;;6.00;6.00;;;;;10.48;100.00;99182.13;6281418;20;2738947;-52
2022/09/19 06:08:56;;;;;;;;;8.00;4.00;;;;;10.66;100.00;99182.63;6285881;20;2742036;-52
2022/09/19 06:11:25;;;;;;;;;22.33;18.33;;;;;10.71;100.00;99188.56;6280083;20;2831561;-54
2022/09/19 06:16:41;;;;;;;;;26.00;21.00;;;;;10.65;100.00;99189.00;6284866;20;2846186;-53
2022/09/19 06:19:10;;;;;;;;;4.00;4.00;;;;;10.52;100.00;99190.81;6285746;20;2753592;-52
2022/09/19 06:21:37;;;;;;;;;5.00;5.00;;;;;10.63;100.00;99182.88;6288929;20;2748297;-54
2022/09/19 06:24:07;;;;;;;;;7.00;5.00;;;;;10.58;100.00;99182.31;6287672;20;2750298;-52
2022/09/19 06:26:36;;;;;;;;;7.00;5.50;;;;;10.61;100.00;99175.88;6290076;20;2739860;-53
2022/09/19 06:29:06;;;;;;;;;5.00;5.00;;;;;10.48;100.00;99181.28;6290774;20;2749251;-56
2022/09/19 06:31:35;;;;;;;;;10.50;6.00;;;;;10.61;100.00;99178.56;6290179;20;2758649;-55
2022/09/19 06:34:03;;;;;;;;;5.00;5.00;;;;;10.69;100.00;99189.63;6293434;20;2750285;-52
2022/09/19 06:36:30;;;;;;;;;7.00;5.00;;;;;10.51;100.00;99191.78;6291262;20;2741902;-52
2022/09/19 06:38:58;;;;;;;;;8.00;4.50;;;;;10.56;100.00;99195.00;6288527;20;2754516;-51
2022/09/19 06:41:31;;;;;;;;;7.00;6.86;;;;;10.67;100.00;99191.59;6332170;20;2733738;-57
2022/09/19 06:43:59;;;;;;;;;3.50;3.50;;;;;10.46;100.00;99199.28;6315314;20;2748237;-54
2022/09/19 06:46:27;;;;;;;;;5.00;4.00;;;;;10.28;100.00;99204.09;6289746;20;2743988;-56
2022/09/19 06:48:55;;;;;;;;;4.50;3.50;;;;;10.57;100.00;99196.72;6290003;20;2745064;-54
2022/09/19 06:51:23;;;;;;;;;6.00;3.50;;;;;10.55;100.00;99199.50;6286945;20;2752383;-52
2022/09/19 06:53:51;;;;;;;;;4.00;3.00;;;;;10.59;100.00;99210.91;6305710;20;1811999;-55
2022/09/19 06:56:20;;;;;;;;;5.00;3.00;;;;;10.38;100.00;99212.38;6336229;20;1805586;-53
2022/09/19 06:58:48;;;;;;;;;5.00;5.00;;;;;10.37;100.00;99216.00;6321259;20;2748191;-53
2022/09/19 07:01:16;;;;;;;;;4.50;4.00;;;;;10.29;100.00;99220.09;6300891;20;2749202;-52
2022/09/19 07:03:44;;;;;;;;;4.00;4.00;;;;;10.40;100.00;99223.84;6289986;20;2754587;-54
2022/09/19 07:06:12;;;;;;;;;4.00;4.00;;;;;10.31;100.00;99223.53;6286721;20;2746234;-55
2022/09/19 07:08:39;;;;;;;;;6.00;5.00;;;;;10.20;100.00;99220.69;6289250;20;2748174;-53
2022/09/19 07:11:07;;;;;;;;;4.00;4.00;;;;;10.37;100.00;99221.38;6290738;20;2748257;-50
2022/09/19 07:13:35;;;;;;;;;5.50;5.00;;;;;10.28;100.00;99226.41;6286880;20;2750321;-54
2022/09/19 07:16:04;;;;;;;;;3.00;3.00;;;;;10.30;100.00;99232.53;6306482;20;1806420;-52
2022/09/19 07:18:37;;;;;;;;;6.00;4.00;;;;;10.46;100.00;99235.03;6322168;20;2756637;-51
2022/09/19 07:21:05;;;;;;;;;4.50;4.00;;;;;10.17;100.00;99236.13;6287590;20;2752370;-54
2022/09/19 07:23:33;;;;;;;;;4.00;4.00;;;;;10.19;100.00;99235.06;6289813;20;2748235;-54
2022/09/19 07:26:02;;;;;;;;;5.00;3.50;;;;;10.30;100.00;99229.00;6282434;20;2756518;-53
2022/09/19 07:28:30;;;;;;;;;5.00;2.25;;;;;10.43;100.00;99232.56;6303729;20;1808693;-53
2022/09/19 07:31:00;;;;;;;;;2.00;2.00;;;;;10.25;100.00;99233.78;6319242;20;2743992;-55
2022/09/19 07:33:29;;;;;;;;;3.00;3.00;;;;;10.17;100.00;99239.66;6291485;20;2739882;-54
2022/09/19 07:35:58;;;;;;;;;2.00;2.00;;;;;10.48;100.00;99230.44;6285153;20;2741926;-52
2022/09/19 07:38:27;;;;;;;;;5.00;2.00;;;;;10.44;100.00;99228.91;6289691;20;2752339;-52
2022/09/19 07:40:55;;;;;;;;;3.00;1.50;;;;;10.66;100.00;99232.81;6291928;20;2733647;-55
2022/09/19 07:43:24;;;;;;;;;1.00;1.00;;;;;10.43;100.00;99229.88;6303331;20;1807622;-54
2022/09/19 07:45:53;;;;;;;;;0.00;0.00;;;;;10.45;100.00;99230.66;6337230;20;1804507;-54
2022/09/19 07:48:22;;;;;;;;;3.00;1.00;;;;;10.62;100.00;99225.94;6321000;20;2733670;-54
2022/09/19 07:50:50;;;;;;;;;1.50;1.50;;;;;10.93;100.00;99230.03;6303291;20;2731522;-52
2022/09/19 07:53:22;;;;;;;;;3.00;2.00;;;;;10.82;100.00;99230.78;6288968;20;2731630;-54
2022/09/19 07:55:57;;;;;;;;;1.00;1.00;;;;;10.76;100.00;99228.50;6289345;20;2729556;-56
2022/09/19 07:58:27;;;;;;;;;0.00;0.00;;;;;10.82;100.00;99230.78;6302786;20;1803566;-51
2022/09/19 08:01:00;;;;;;;;;2.25;1.00;;;;;10.80;100.00;99223.81;6329551;20;1798295;-51
2022/09/19 08:03:29;;;;;;;;;1.00;1.00;;;;;10.95;100.00;99211.97;6331862;20;1802522;-55
2022/09/19 08:06:01;;;;;;;;;1.50;1.50;;;;;11.39;100.00;99213.28;6315125;20;2730477;-55
2022/09/19 08:08:30;;;;;;;;;1.50;1.50;;;;;11.49;100.00;99217.03;6301290;20;1803523;-57
2022/09/19 08:11:00;;;;;;;;;4.00;4.00;;;;;11.12;100.00;99214.31;6312815;20;2749201;-53
2022/09/19 08:13:29;;;;;;;;;4.00;4.00;;;;;11.57;100.00;99220.03;6298135;20;1823375;-56
2022/09/19 08:15:57;;;;;;;;;0.50;0.50;;;;;11.78;100.00;99227.50;6314654;20;2731540;-54
2022/09/19 08:18:31;;;;;;;;;1.50;0.75;;;;;11.48;99.94;99228.78;6301059;20;1808738;-56
2022/09/19 08:20:59;;;;;;;;;1.00;1.00;;;;;12.04;97.49;99239.88;6331466;20;1803519;-55
2022/09/19 08:23:29;;;;;;;;;3.00;2.00;;;;;11.90;98.14;99245.44;6321739;20;2622132;-54
2022/09/19 08:26:05;;;;;;;;;1.00;1.00;;;;;12.17;98.29;99241.66;6262155;20;2731539;-53
2022/09/19 08:28:35;;;;;;;;;2.50;1.50;;;;;12.69;96.42;99248.44;6305396;20;1807735;-52
2022/09/19 08:31:03;;;;;;;;;2.50;2.50;;;;;13.33;94.86;99248.81;6321276;20;2729430;-53
2022/09/19 08:33:31;;;;;;;;;2.00;2.00;;;;;13.29;94.52;99249.16;6290083;20;2753510;-55
2022/09/19 08:36:01;;;;;;;;;1.00;1.00;;;;;12.83;93.88;99253.63;6303421;20;1803558;-56
2022/09/19 08:38:29;;;;;;;;;1.00;1.00;;;;;12.55;91.87;99260.28;6337454;20;1805570;-56
2022/09/19 08:41:38;;;;;;;;;1.00;1.00;;;;;12.23;96.94;99265.41;6320747;20;2730472;-54
2022/09/19 08:44:18;;;;;;;;;2.00;2.00;;;;;12.15;96.55;99267.84;6304361;20;1806616;-54
2022/09/19 08:47:12;;;;;;;;;3.00;1.00;;;;;12.47;94.38;99268.94;6314860;20;2726348;-53
2022/09/19 08:50:24;;;;;;;;;1.00;1.00;;;;;12.49;94.88;99267.00;6300275;20;1790924;-49
2022/09/19 08:53:00;;;;;;;;;2.00;2.00;;;;;13.48;90.21;99264.72;6320279;20;2745036;-55
2022/09/19 08:55:34;;;;;;;;;1.00;1.00;;;;;13.15;91.18;99258.31;6284642;20;2731503;-51
2022/09/19 08:58:07;;;;;;;;;1.00;1.00;;;;;12.83;90.87;99264.41;6288876;20;2723200;-49
2022/09/19 09:00:45;;;;;;;;;5.00;5.00;;;;;12.96;90.99;99249.00;6282906;20;2750498;-50
2022/09/19 09:03:29;;;;;;;;;4.00;2.00;;;;;12.85;91.48;99257.06;6285387;20;2756532;-50
2022/09/19 09:06:10;;;;;;;;;2.00;2.00;;;;;12.93;91.94;99253.78;6301341;20;1810836;-52
2022/09/19 09:09:32;;;;;;;;;2.00;2.00;;;;;12.47;91.11;99265.38;6335744;20;1800380;-54
2022/09/19 09:12:40;;;;;;;;;2.00;2.00;;;;;12.69;91.31;99278.06;6320292;20;2739829;-56
2022/09/19 09:16:05;;;;;;;;;1.00;1.00;;;;;12.66;86.79;99278.31;6300972;20;1803510;-55
2022/09/19 09:19:03;;;;;;;;;2.00;2.00;;;;;12.42;86.59;99265.72;6317221;20;2744012;-51
2022/09/19 09:22:19;;;;;;;;;3.00;2.00;;;;;12.59;84.42;99279.78;6289049;20;2752319;-51
2022/09/19 09:25:10;;;;;;;;;1.25;1.00;;;;;12.68;81.02;99279.06;6302952;20;1800486;-50
2022/09/19 09:28:14;;;;;;;;;1.00;1.00;;;;;12.43;81.56;99283.63;6332511;20;1809845;-48
2022/09/19 09:30:48;;;;;;;;;1.00;1.00;;;;;12.38;81.96;99283.13;6334662;20;1801547;-53
2022/09/19 09:33:31;;;;;;;;;0.00;0.00;;;;;12.28;82.52;99284.78;6318757;20;2733693;-53
2022/09/19 09:36:15;;;;;;;;;1.00;1.00;;;;;12.23;81.71;99293.19;6302122;20;1803171;-53
2022/09/19 09:40:09;;;;;;;;;7.50;4.50;;;;;12.42;80.75;99287.28;6314520;20;2749269;-51
2022/09/19 09:43:02;;;;;;;;;1.00;1.00;;;;;14.42;75.17;99283.03;6301321;20;1804552;-51
2022/09/19 09:45:48;;;;;;;;;1.00;1.00;;;;;15.03;73.06;99290.50;6317465;20;2728452;-55
2022/09/19 09:48:26;;;;;;;;;1.00;1.00;;;;;15.22;71.91;99288.91;6291483;20;2726325;-53
2022/09/19 09:51:32;;;;;;;;;0.00;0.00;;;;;15.13;69.76;99287.84;6291440;20;2735808;-53
2022/09/19 09:58:10;;;;;;;;;1.50;0.00;;;;;14.39;72.45;99282.44;6295836;20;2727315;-53
2022/09/19 10:03:53;;;;;;;;;0.50;0.50;;;;;15.68;67.70;99287.56;6275344;20;2730274;-48
2022/09/19 10:06:42;;;;;;;;;0.00;0.00;;;;;15.62;67.65;99288.13;6290895;20;2723176;-54
2022/09/19 10:09:32;;;;;;;;;2.00;0.00;;;;;16.29;66.37;99281.19;6290047;20;2733596;-51
2022/09/19 10:12:21;;;;;;;;;0.00;0.00;;;;;16.16;66.04;99281.44;6288525;20;2723253;-52
2022/09/19 10:15:19;;;;;;;;;0.00;0.00;;;;;16.11;66.31;99287.28;6292687;20;2735706;-54
2022/09/19 10:17:58;;;;;;;;;0.00;0.00;;;;;15.27;67.39;99275.81;6292986;20;2735732;-53
2022/09/19 10:20:49;;;;;;;;;0.00;0.00;;;;;15.78;67.22;99293.91;6292972;20;2735704;-52
2022/09/19 10:23:32;;;;;;;;;0.00;0.00;;;;;15.62;67.01;99293.53;6292925;20;2727514;-55
2022/09/19 10:26:14;;;;;;;;;0.00;0.00;;;;;15.93;66.77;99281.69;6292282;20;2727468;-53
2022/09/19 10:28:53;;;;;;;;;1.00;1.00;;;;;15.62;64.51;99278.13;6290788;20;2733785;-54
2022/09/19 10:31:34;;;;;;;;;0.00;0.00;;;;;16.20;62.92;99280.19;6293405;20;2731501;-53
2022/09/19 10:34:08;;;;;;;;;1.00;1.00;;;;;15.43;63.51;99281.63;6293093;20;2733584;-54
2022/09/19 10:36:47;;;;;;;;;0.00;0.00;;;;;15.78;63.77;99281.22;6295683;20;2729465;-52
2022/09/19 10:39:19;;;;;;;;;4.80;4.40;;;;;15.80;63.62;99286.50;6314606;20;2744086;-56
2022/09/19 10:41:46;;;;;;;;;0.00;0.00;;;;;15.54;62.90;99284.22;6316022;20;2735715;-54
2022/09/19 10:44:26;;;;;;;;;1.50;1.50;;;;;15.77;63.83;99286.75;6292567;20;2739842;-54
2022/09/19 10:47:03;;;;;;;;;0.00;0.00;;;;;15.86;62.64;99280.53;6290562;20;2731588;-53
2022/09/19 10:49:46;;;;;;;;;1.00;0.00;;;;;15.89;63.50;99284.81;6289875;20;2735812;-54
2022/09/19 10:52:30;;;;;;;;;0.00;0.00;;;;;15.43;63.02;99289.75;6292158;20;2731515;-55
2022/09/19 10:55:22;;;;;;;;;1.00;1.00;;;;;14.61;64.97;99290.50;6292634;20;2727357;-53
2022/09/19 10:58:05;;;;;;;;;2.50;2.00;;;;;14.35;64.21;99313.38;6291834;20;2734643;-55
2022/09/19 11:00:56;;;;;;;;;2.00;2.00;;;;;14.40;64.44;99297.66;6285079;20;2752333;-56
2022/09/19 11:03:35;;;;;;;;;0.00;0.00;;;;;14.72;63.57;99303.09;6298377;20;1803452;-54
2022/09/19 11:06:12;;;;;;;;;2.00;0.00;;;;;14.32;64.53;99297.44;6323944;20;2728393;-53
2022/09/19 11:08:47;;;;;;;;;0.00;0.00;;;;;13.98;65.97;99302.94;6291593;20;2735718;-52
2022/09/19 11:11:45;;;;;;;;;2.00;0.00;;;;;14.14;66.86;99303.41;6290353;20;2731527;-52
2022/09/19 11:14:31;;;;;;;;;0.00;0.00;;;;;14.76;66.94;99303.69;6287780;20;2729437;-49
2022/09/19 11:17:08;;;;;;;;;0.00;0.00;;;;;14.80;64.38;99313.25;6302854;20;1799584;-57
2022/09/19 11:20:19;;;;;;;;;0.00;0.00;;;;;14.75;67.99;99307.41;6323221;20;2735696;-48
2022/09/19 11:23:52;;;;;;;;;2.00;0.50;;;;;14.82;67.37;99301.31;6292143;20;2732073;-54
2022/09/19 11:26:47;;;;;;;;;0.00;0.00;;;;;15.38;65.24;99308.22;6290557;20;2735646;-51
2022/09/19 11:29:49;;;;;;;;;0.00;0.00;;;;;15.31;66.47;99304.34;6288895;20;2727492;-53
2022/09/19 11:32:34;;;;;;;;;0.00;0.00;;;;;15.68;65.19;99299.25;6288824;20;2731560;-50
2022/09/19 11:35:53;;;;;;;;;0.00;0.00;;;;;15.72;65.00;99300.72;6291546;20;2724223;-51
2022/09/19 11:38:55;;;;;;;;;3.00;1.50;;;;;15.33;66.10;99288.84;6290469;20;2739850;-52
2022/09/19 11:42:21;;;;;;;;;1.50;1.00;;;;;15.94;63.43;99290.66;6290061;20;2735769;-53
2022/09/19 11:45:03;;;;;;;;;1.00;1.00;;;;;17.11;63.89;99299.72;6291495;20;2729437;-52
2022/09/19 11:48:16;;;;;;;;;15.00;13.00;;;;;16.32;61.09;99300.69;6290437;20;2796473;-52
2022/09/19 11:51:43;;;;;;;;;1.00;1.00;;;;;15.99;62.96;99291.97;6288897;20;2721543;-54
2022/09/19 11:55:07;;;;;;;;;13.00;10.40;;;;;15.34;63.76;99299.50;6308972;20;2783571;-52
2022/09/19 11:58:10;;;;;;;;;4.00;4.00;;;;;14.61;66.15;99304.03;6290182;20;2744152;-51
2022/09/19 12:01:36;;;;;;;;;0.00;0.00;;;;;14.32;66.77;99317.19;6287909;20;2727357;-50
2022/09/19 12:04:32;;;;;;;;;0.00;0.00;;;;;13.20;74.65;99325.38;6290575;20;2726289;-53
2022/09/19 12:07:41;;;;;;;;;0.00;0.00;;;;;12.68;80.67;99332.91;6288336;20;2735664;-49
2022/09/19 12:10:25;;;;;;;;;1.00;1.00;;;;;12.63;85.12;99340.50;6285886;20;3442987;-52
2022/09/19 12:13:27;;;;;;;;;5.00;5.00;;;;;12.34;86.01;99340.84;6286263;20;2744089;-51
2022/09/19 12:16:08;;;;;;;;;0.00;0.00;;;;;12.34;86.17;99327.38;6301291;20;1804478;-52
2022/09/19 12:19:14;;;;;;;;;3.00;2.00;;;;;12.32;84.93;99329.31;6317523;20;2752323;-51
2022/09/19 12:21:52;;;;;;;;;2.00;2.00;;;;;12.50;84.35;99333.31;6287624;20;2739834;-53